Time;durP1;ratioP1;P1;durP2;ratioP2;P2;SDS_P1;SDS_P2;PMS_P1;PMS_P2;Temp;Humidity;BMP_temperature;BMP_pressure;BME280_temperature;BME280_humidity;BME280_pressure;Samples;Min_cycle;Max_cycle;Signal;HPM_P1;HPM_P2
2023/03/22 00:03:12;;;;;;;13.23;6.03;;;;;;;10.21;50.25;99729.06;7658792;32;39954;-83
2023/03/22 00:07:28;;;;;;;8.25;5.68;;;;;;;10.30;49.44;99730.19;7658748;32;36223;-82
2023/03/22 00:11:45;;;;;;;10.30;6.07;;;;;;;10.27;49.58;99725.28;7658749;32;38000;-83
2023/03/22 00:16:01;;;;;;;9.77;5.87;;;;;;;10.10;50.10;99723.59;7658925;32;40051;-82
2023/03/22 00:20:18;;;;;;;11.75;6.43;;;;;;;10.00;50.66;99726.31;7659094;32;39931;-83
2023/03/22 00:24:36;;;;;;;10.18;6.03;;;;;;;10.34;49.64;99718.50;7658525;32;38891;-84
2023/03/22 00:28:52;;;;;;;11.90;7.00;;;;;;;10.30;50.05;99714.66;7658706;32;37194;-83
2023/03/22 00:33:09;;;;;;;9.65;6.18;;;;;;;10.26;50.23;99710.00;7658386;32;39204;-84
2023/03/22 00:37:26;;;;;;;12.52;7.30;;;;;;;10.25;50.40;99713.84;7657206;32;39970;-82
2023/03/22 00:41:42;;;;;;;18.00;7.93;;;;;;;10.04;51.29;99713.81;7658492;32;38484;-83
2023/03/22 00:45:59;;;;;;;11.63;7.30;;;;;;;10.13;50.55;99712.19;7658278;32;36841;-83
2023/03/22 00:50:15;;;;;;;12.80;6.50;;;;;;;9.91;51.79;99709.69;7658445;32;39605;-83
2023/03/22 00:54:31;;;;;;;12.35;6.35;;;;;;;10.07;51.19;99704.28;7658322;32;39974;-83
2023/03/22 00:58:48;;;;;;;11.10;6.53;;;;;;;10.19;50.77;99699.38;7658136;32;38071;-83
2023/03/22 01:03:04;;;;;;;11.98;6.62;;;;;;;9.95;51.03;99693.63;7657043;32;37118;-83
2023/03/22 01:07:22;;;;;;;10.70;6.47;;;;;;;9.79;51.28;99692.78;7656878;32;39981;-83
2023/03/22 01:11:39;;;;;;;10.55;5.85;;;;;;;9.82;50.97;99699.62;7658085;32;38893;-83
2023/03/22 01:15:56;;;;;;;11.27;6.25;;;;;;;9.86;50.79;99695.25;7657839;32;38609;-83
2023/03/22 01:20:12;;;;;;;10.48;6.37;;;;;;;9.66;51.13;99691.41;7658068;32;37131;-84
2023/03/22 01:24:29;;;;;;;11.98;6.87;;;;;;;9.89;50.75;99692.00;7658164;32;39288;-83
2023/03/22 01:28:45;;;;;;;11.55;6.65;;;;;;;9.61;52.23;99696.00;7657574;32;39912;-82
2023/03/22 01:33:01;;;;;;;12.18;7.10;;;;;;;9.88;51.28;99701.25;7657444;32;39461;-83
2023/03/22 01:37:18;;;;;;;11.68;6.68;;;;;;;9.65;51.74;99695.19;7657717;32;38061;-82
2023/03/22 01:41:36;;;;;;;11.60;6.87;;;;;;;9.58;52.40;99690.00;7657710;32;40537;-83
2023/03/22 01:45:53;;;;;;;11.95;6.65;;;;;;;9.27;53.46;99697.25;7657554;32;40872;-83
2023/03/22 01:50:10;;;;;;;12.07;7.10;;;;;;;9.31;52.93;99695.66;7657274;32;37946;-83
2023/03/22 01:54:49;;;;;;;11.25;6.78;;;;;;;9.27;53.37;99697.25;7656231;32;37061;-83
2023/03/22 01:59:06;;;;;;;13.80;6.90;;;;;;;9.42;53.27;99698.38;7656979;32;39267;-83
2023/03/22 02:03:46;;;;;;;11.00;6.30;;;;;;;9.55;53.38;99684.28;7656020;32;40580;-83
2023/03/22 02:08:03;;;;;;;12.35;6.40;;;;;;;9.83;52.68;99687.63;7655988;32;39998;-83
2023/03/22 02:12:47;;;;;;;12.95;6.78;;;;;;;9.49;53.90;99683.44;7655796;32;37271;-84
2023/03/22 02:17:22;;;;;;;13.95;6.25;;;;;;;9.63;53.95;99680.25;7656607;32;39423;-83
2023/03/22 02:22:24;;;;;;;11.77;7.07;;;;;;;8.91;55.54;99696.25;7655547;32;40688;-83
2023/03/22 02:26:53;;;;;;;12.95;7.05;;;;;;;9.39;54.33;99686.13;7653321;32;37706;-83
2023/03/22 02:31:37;;;;;;;13.82;6.75;;;;;;;9.19;55.53;99695.03;7656375;32;37393;-83
2023/03/22 02:36:08;;;;;;;11.98;6.50;;;;;;;9.57;53.66;99699.28;7656581;32;39491;-83
2023/03/22 02:40:31;;;;;;;12.85;6.87;;;;;;;9.45;54.04;99706.84;7656409;32;40570;-81
2023/03/22 02:45:20;;;;;;;11.07;6.60;;;;;;;9.24;54.44;99716.81;7655050;32;37768;-82
2023/03/22 02:49:48;;;;;;;12.65;6.65;;;;;;;9.34;54.67;99708.69;7653935;32;37071;-84
2023/03/22 02:54:19;;;;;;;10.05;6.07;;;;;;;9.52;54.18;99717.47;7654767;32;39099;-83
2023/03/22 02:58:44;;;;;;;10.95;6.45;;;;;;;9.50;54.14;99712.31;7655583;32;39963;-84
2023/03/22 03:03:10;;;;;;;11.73;6.20;;;;;;;9.57;54.07;99715.59;7650528;32;37866;-82
2023/03/22 03:07:28;;;;;;;12.57;5.95;;;;;;;9.70;54.08;99714.28;7658550;32;37294;-83
2023/03/22 03:11:52;;;;;;;9.25;5.65;;;;;;;9.75;54.46;99694.41;7659339;32;38563;-83
2023/03/22 03:16:12;;;;;;;12.55;5.97;;;;;;;10.01;53.75;99686.31;7659578;32;40863;-81
2023/03/22 03:20:53;;;;;;;12.00;6.07;;;;;;;9.64;54.11;99695.47;7657772;32;38736;-82
2023/03/22 03:25:18;;;;;;;10.13;6.20;;;;;;;9.83;53.23;99693.06;7659452;32;37189;-83
2023/03/22 03:29:59;;;;;;;10.80;6.18;;;;;;;9.52;54.22;99701.13;7658007;32;39425;-83
2023/03/22 03:34:34;;;;;;;10.15;6.20;;;;;;;9.39;54.05;99697.84;7657864;32;39966;-83
2023/03/22 03:38:52;;;;;;;9.80;5.87;;;;;;;9.53;54.10;99689.19;7659276;32;37787;-83
2023/03/22 03:43:09;;;;;;;10.73;5.93;;;;;;;9.09;55.48;99720.28;7658023;32;37011;-82
2023/03/22 03:47:27;;;;;;;9.65;6.03;;;;;;;9.23;54.93;99727.94;7657810;32;40179;-82
2023/03/22 03:51:50;;;;;;;10.68;6.20;;;;;;;9.29;54.53;99711.37;7657785;32;40956;-83
2023/03/22 03:56:07;;;;;;;11.32;5.78;;;;;;;9.33;54.54;99717.13;7657816;32;37905;-83
2023/03/22 04:00:23;;;;;;;10.45;6.30;;;;;;;9.26;54.54;99738.31;7658754;32;37101;-83
2023/03/22 04:04:39;;;;;;;12.90;6.28;;;;;;;9.46;54.08;99718.53;7658942;32;39452;-83
2023/03/22 04:08:56;;;;;;;9.55;6.00;;;;;;;9.28;54.67;99701.63;7658554;32;39978;-83
2023/03/22 04:13:13;;;;;;;10.85;6.37;;;;;;;9.37;54.63;99710.09;7657645;32;37538;-83
2023/03/22 04:17:30;;;;;;;12.90;6.95;;;;;;;9.44;54.99;99715.28;7658768;32;37197;-83
2023/03/22 04:21:47;;;;;;;9.68;5.60;;;;;;;9.24;55.74;99716.81;7645185;32;39128;-83
2023/03/22 04:26:04;;;;;;;11.52;6.90;;;;;;;9.17;55.82;99735.28;7645119;32;40804;-83
2023/03/22 04:30:21;;;;;;;10.95;6.60;;;;;;;9.29;54.90;99725.00;7658064;32;37627;-82
2023/03/22 04:34:37;;;;;;;10.85;6.12;;;;;;;9.20;54.96;99716.53;7658517;32;37459;-83
2023/03/22 04:38:54;;;;;;;11.02;6.55;;;;;;;9.35;54.59;99723.94;7658365;32;39489;-83
2023/03/22 04:43:10;;;;;;;11.85;6.30;;;;;;;9.39;54.63;99735.94;7658284;32;39905;-83
2023/03/22 04:47:29;;;;;;;11.00;6.50;;;;;;;9.33;54.74;99739.72;7658466;32;38044;-83
2023/03/22 04:51:45;;;;;;;11.90;6.30;;;;;;;9.30;54.56;99745.69;7658369;32;37102;-83
2023/03/22 04:56:04;;;;;;;10.88;6.00;;;;;;;9.24;54.82;99740.47;7658367;32;39287;-82
2023/03/22 05:00:20;;;;;;;12.95;6.80;;;;;;;9.21;55.14;99722.81;7658100;32;39899;-83
2023/03/22 05:04:37;;;;;;;8.70;5.85;;;;;;;9.27;55.31;99742.69;7658223;32;37613;-83
2023/03/22 05:08:55;;;;;;;12.37;6.28;;;;;;;9.43;55.09;99746.28;7656734;32;36985;-83
2023/03/22 05:13:11;;;;;;;10.20;5.53;;;;;;;9.41;55.03;99743.81;7658032;32;41047;-83
2023/03/22 05:17:27;;;;;;;9.55;5.50;;;;;;;9.61;54.49;99754.00;7656636;32;40968;-83
2023/03/22 05:21:44;;;;;;;10.65;6.22;;;;;;;9.28;55.48;99753.28;7657278;32;37858;-83
2023/03/22 05:26:02;;;;;;;9.05;6.50;;;;;;;9.47;55.08;99731.91;7657918;32;37863;-83
2023/03/22 05:30:19;;;;;;;11.40;6.55;;;;;;;9.68;54.95;99743.66;7657552;32;39896;-81
2023/03/22 05:34:35;;;;;;;13.52;6.68;;;;;;;9.21;56.36;99760.88;7657471;32;40798;-83
2023/03/22 05:38:52;;;;;;;12.60;7.07;;;;;;;9.00;57.69;99749.87;7657667;32;37854;-83
2023/03/22 05:43:08;;;;;;;13.62;6.87;;;;;;;9.18;57.78;99753.25;7657679;32;37863;-82
2023/03/22 05:47:24;;;;;;;13.77;6.75;;;;;;;9.27;57.65;99742.69;7657715;32;39459;-82
2023/03/22 05:51:41;;;;;;;14.25;6.35;;;;;;;9.48;57.09;99757.19;7656907;32;39726;-82
2023/03/22 05:55:59;;;;;;;10.63;6.47;;;;;;;9.58;56.99;99770.84;7657141;32;37955;-82
2023/03/22 06:00:17;;;;;;;14.32;7.50;;;;;;;9.78;56.97;99759.22;7657490;32;37582;-83
2023/03/22 06:04:33;;;;;;;12.25;6.65;;;;;;;9.65;57.18;99767.88;7656378;32;39824;-85
2023/03/22 06:08:49;;;;;;;18.37;6.15;;;;;;;10.11;56.78;99754.41;7657230;32;39954;-83
2023/03/22 06:13:05;;;;;;;14.68;6.57;;;;;;;10.23;56.57;99774.03;7656825;32;37936;-83
2023/03/22 06:17:22;;;;;;;10.02;6.25;;;;;;;10.47;56.25;99774.38;7656587;32;37851;-83
2023/03/22 06:21:39;;;;;;;11.55;6.55;;;;;;;10.70;55.30;99778.47;7656791;32;39318;-83
2023/03/22 06:25:55;;;;;;;12.37;6.78;;;;;;;10.99;53.85;99763.47;7656356;32;40799;-84
2023/03/22 06:30:12;;;;;;;15.82;7.07;;;;;;;10.87;54.11;99791.81;7656358;32;37895;-84
2023/03/22 06:34:29;;;;;;;11.65;6.57;;;;;;;11.07;54.05;99782.81;7656849;32;38357;-83
2023/03/22 06:38:45;;;;;;;11.48;6.60;;;;;;;11.06;53.97;99803.00;7659893;32;39336;-83
2023/03/22 06:43:03;;;;;;;15.30;6.03;;;;;;;11.12;54.56;99792.88;7659644;32;39030;-84
2023/03/22 06:47:22;;;;;;;11.80;7.25;;;;;;;11.40;53.86;99799.66;7658740;32;36857;-82
2023/03/22 06:51:38;;;;;;;11.23;6.53;;;;;;;11.26;54.29;99804.03;7657878;32;37806;-84
2023/03/22 06:55:55;;;;;;;14.05;6.32;;;;;;;11.52;53.96;99793.06;7656444;32;38973;-83
2023/03/22 07:00:12;;;;;;;16.08;7.00;;;;;;;11.75;53.92;99786.97;7657574;32;39875;-81
2023/03/22 07:04:31;;;;;;;15.05;6.60;;;;;;;11.37;53.92;99793.94;7659014;32;38442;-79
2023/03/22 07:08:48;;;;;;;15.25;6.30;;;;;;;11.70;53.85;99791.66;7659194;32;37130;-74
2023/03/22 07:13:07;;;;;;;12.65;6.85;;;;;;;11.82;57.20;99792.16;7659539;32;39561;-83
2023/03/22 07:17:23;;;;;;;12.48;6.87;;;;;;;12.00;53.36;99794.28;7659068;32;39903;-86
2023/03/22 07:21:39;;;;;;;15.13;7.72;;;;;;;12.11;52.12;99800.50;7657976;32;37934;-86
2023/03/22 07:25:58;;;;;;;12.25;6.95;;;;;;;12.37;52.12;99806.62;7658307;32;37460;-86
2023/03/22 07:30:14;;;;;;;11.30;6.53;;;;;;;12.66;51.55;99803.16;7659071;32;38258;-85
2023/03/22 07:34:30;;;;;;;11.38;6.28;;;;;;;12.54;51.48;99810.91;7659354;32;40799;-86
2023/03/22 07:38:47;;;;;;;15.05;6.55;;;;;;;12.83;50.89;99802.75;7658633;32;37562;-85
2023/03/22 07:43:03;;;;;;;12.18;7.12;;;;;;;12.84;50.64;99792.63;7658878;32;37857;-85
2023/03/22 07:47:19;;;;;;;12.40;6.53;;;;;;;12.12;51.89;99806.78;7658685;32;39533;-86
2023/03/22 07:51:55;;;;;;;11.32;6.35;;;;;;;12.31;51.07;99796.81;7659639;32;39582;-86
2023/03/22 07:56:11;;;;;;;10.18;6.37;;;;;;;12.65;50.42;99795.22;7635032;32;37872;-87
2023/03/22 08:00:27;;;;;;;13.30;6.85;;;;;;;12.63;50.27;99798.25;7632461;32;37155;-85
2023/03/22 08:04:44;;;;;;;13.38;6.57;;;;;;;12.44;50.61;99789.09;7654246;32;39500;-88
2023/03/22 08:09:00;;;;;;;11.05;6.55;;;;;;;12.72;49.59;99802.00;7658655;32;39985;-88
2023/03/22 08:13:16;;;;;;;14.25;7.70;;;;;;;12.95;48.75;99816.88;7658592;32;38669;-87
2023/03/22 08:17:33;;;;;;;13.85;6.40;;;;;;;12.90;49.31;99814.19;7657827;32;37318;-87
2023/03/22 08:21:49;;;;;;;10.10;6.15;;;;;;;13.19;48.46;99807.06;7658202;32;39270;-86
2023/03/22 08:26:05;;;;;;;10.43;5.85;;;;;;;13.24;47.42;99807.03;7644751;32;40742;-86
2023/03/22 08:30:22;;;;;;;11.52;5.62;;;;;;;13.37;47.43;99803.63;7646746;32;38029;-87
2023/03/22 08:34:41;;;;;;;9.82;5.62;;;;;;;13.09;48.40;99800.59;7652977;32;36859;-86
2023/03/22 08:38:57;;;;;;;11.95;6.50;;;;;;;13.57;47.08;99788.06;7658219;32;40136;-85
2023/03/22 08:43:15;;;;;;;12.27;6.50;;;;;;;13.64;46.30;99789.38;7658366;32;39032;-86
2023/03/22 08:47:32;;;;;;;9.93;6.25;;;;;;;13.64;46.15;99785.78;7658126;32;37829;-86
2023/03/22 08:51:48;;;;;;;9.98;5.93;;;;;;;13.64;46.39;99789.38;7657801;32;37307;-85
2023/03/22 08:56:06;;;;;;;13.10;6.85;;;;;;;13.52;47.82;99803.47;7658237;32;39895;-84
2023/03/22 09:00:23;;;;;;;9.43;6.32;;;;;;;13.46;47.82;99803.81;7657274;32;39741;-85
2023/03/22 09:04:54;;;;;;;12.60;6.55;;;;;;;13.62;46.71;99793.50;7657824;32;38883;-84
2023/03/22 09:09:15;;;;;;;14.30;8.18;;;;;;;13.46;47.61;99796.41;7657498;32;37960;-84
2023/03/22 09:13:31;;;;;;;13.15;7.28;;;;;;;13.17;48.09;99801.88;7657750;32;39485;-84
2023/03/22 09:17:48;;;;;;;13.25;7.55;;;;;;;13.35;47.13;99808.59;7656515;32;39991;-84
2023/03/22 09:22:06;;;;;;;13.35;7.32;;;;;;;13.39;47.20;99804.16;7657674;32;36827;-85
2023/03/22 09:26:23;;;;;;;14.90;8.13;;;;;;;13.62;46.85;99798.97;7657473;32;37956;-85
2023/03/22 09:30:39;;;;;;;14.43;6.95;;;;;;;13.67;46.43;99785.22;7657481;32;39299;-85
2023/03/22 09:34:56;;;;;;;18.50;8.02;;;;;;;13.87;46.81;99797.84;7657134;32;40116;-85
2023/03/22 09:39:15;;;;;;;14.90;7.95;;;;;;;13.87;46.96;99787.72;7657351;32;37552;-85
2023/03/22 09:43:50;;;;;;;13.57;7.97;;;;;;;13.81;46.78;99783.38;7657432;32;37839;-84
2023/03/22 09:48:23;;;;;;;13.73;7.50;;;;;;;14.16;46.35;99777.72;7656433;32;39626;-86
2023/03/22 09:52:42;;;;;;;18.23;7.53;;;;;;;14.24;46.55;99779.81;7656080;32;39845;-85
2023/03/22 09:57:17;;;;;;;14.85;6.60;;;;;;;14.42;46.07;99780.94;7655827;32;38735;-84
2023/03/22 10:01:50;;;;;;;11.95;6.07;;;;;;;14.68;45.55;99772.31;7656087;32;37910;-85
2023/03/22 10:06:17;;;;;;;11.63;6.28;;;;;;;14.43;45.70;99777.06;7657836;32;40069;-87
2023/03/22 10:10:35;;;;;;;13.27;5.97;;;;;;;14.40;46.19;99778.47;7658101;32;39926;-84
2023/03/22 10:15:05;;;;;;;11.07;5.68;;;;;;;15.06;45.24;99775.78;7659818;32;38011;-83
2023/03/22 10:19:42;;;;;;;12.18;6.12;;;;;;;15.12;44.41;99776.50;7658950;32;37424;-83
2023/03/22 10:24:14;;;;;;;9.52;5.28;;;;;;;15.02;43.76;99777.47;7658773;32;39447;-84
2023/03/22 10:28:39;;;;;;;12.90;5.10;;;;;;;15.21;43.91;99763.69;7659097;32;40125;-88
2023/03/22 10:33:12;;;;;;;12.10;5.90;;;;;;;15.58;42.91;99768.19;7643754;32;37825;-82
2023/03/22 10:37:34;;;;;;;11.38;4.85;;;;;;;15.56;42.25;99767.69;7632306;32;37877;-82
2023/03/22 10:41:53;;;;;;;11.95;5.18;;;;;;;15.55;42.92;99763.28;7644289;32;39011;-81
2023/03/22 10:46:17;;;;;;;8.43;4.72;;;;;;;15.94;41.69;99764.72;7633567;32;40862;-83
2023/03/22 10:50:40;;;;;;;8.10;4.50;;;;;;;16.03;41.65;99759.31;7644380;32;38728;-83
2023/03/22 10:54:57;;;;;;;7.05;4.40;;;;;;;15.89;40.79;99761.28;7633423;32;37928;-83
2023/03/22 10:59:41;;;;;;;14.60;5.03;;;;;;;15.57;41.35;99761.09;7644025;32;40764;-83
2023/03/22 11:04:01;;;;;;;9.68;4.60;;;;;;;16.14;40.55;99760.72;7633569;32;40066;-83
2023/03/22 11:08:20;;;;;;;7.20;4.00;;;;;;;15.94;40.49;99752.91;7633317;32;37858;-83
2023/03/22 11:12:46;;;;;;;9.90;4.68;;;;;;;16.38;39.59;99739.53;7633252;32;38568;-83
2023/03/22 11:17:07;;;;;;;7.35;4.80;;;;;;;16.60;39.84;99727.72;7632437;32;39954;-83
2023/03/22 11:21:28;;;;;;;9.40;5.50;;;;;;;16.24;39.75;99723.09;7630481;32;40519;-83
2023/03/22 11:25:49;;;;;;;10.20;5.75;;;;;;;16.95;39.40;99719.69;7643501;32;38789;-83
2023/03/22 11:30:24;;;;;;;8.82;5.15;;;;;;;16.98;38.97;99711.63;7649010;32;37887;-75
2023/03/22 11:34:44;;;;;;;9.60;5.40;;;;;;;17.07;38.99;99711.66;7658552;32;39955;-82
2023/03/22 11:39:06;;;;;;;12.48;5.03;;;;;;;17.47;39.12;99700.62;7658233;32;40636;-82
2023/03/22 11:43:26;;;;;;;13.02;5.37;;;;;;;17.51;37.79;99698.84;7659081;32;37827;-82
2023/03/22 11:47:43;;;;;;;12.73;5.03;;;;;;;17.56;38.39;99689.63;7657772;32;38097;-82
2023/03/22 11:52:14;;;;;;;11.18;5.72;;;;;;;17.39;37.78;99684.88;7659236;32;40208;-82
2023/03/22 11:56:30;;;;;;;9.07;4.90;;;;;;;17.71;37.25;99686.41;7659084;32;39967;-83
2023/03/22 12:00:51;;;;;;;10.90;4.47;;;;;;;18.09;37.33;99679.47;7658826;32;38406;-82
2023/03/22 12:05:32;;;;;;;9.13;4.80;;;;;;;18.08;36.87;99686.16;7635313;32;37183;-84
2023/03/22 12:09:57;;;;;;;8.27;4.40;;;;;;;18.32;36.12;99680.13;7658481;32;39124;-82
2023/03/22 12:14:28;;;;;;;7.12;4.20;;;;;;;18.51;36.12;99685.31;7657686;32;39662;-82
2023/03/22 12:18:50;;;;;;;8.35;4.72;;;;;;;18.73;36.41;99687.84;7657727;32;37907;-83
2023/03/22 12:23:14;;;;;;;9.93;4.37;;;;;;;18.99;35.26;99675.09;7658739;32;37781;-83
2023/03/22 12:27:37;;;;;;;10.20;4.78;;;;;;;19.07;33.94;99672.31;7657085;32;37436;-82
2023/03/22 12:32:08;;;;;;;9.05;4.15;;;;;;;19.37;33.81;99677.88;7653369;32;39989;-83
2023/03/22 12:36:48;;;;;;;10.85;4.50;;;;;;;19.31;33.20;99676.44;7645248;32;36875;-84
2023/03/22 12:41:14;;;;;;;8.90;3.90;;;;;;;19.14;33.06;99675.38;7649133;32;37214;-83
2023/03/22 12:45:35;;;;;;;8.02;4.05;;;;;;;19.46;33.62;99667.56;7658225;32;39890;-84
2023/03/22 12:50:02;;;;;;;8.00;4.03;;;;;;;19.65;33.20;99661.59;7657958;32;39603;-83
2023/03/22 12:54:21;;;;;;;9.30;3.10;;;;;;;19.69;32.21;99661.72;7657914;32;37641;-84
2023/03/22 12:58:38;;;;;;;8.13;3.33;;;;;;;19.71;31.43;99653.91;7643841;32;37072;-83
2023/03/22 13:03:17;;;;;;;7.82;3.90;;;;;;;19.81;30.56;99653.53;7657045;32;38913;-83
2023/03/22 13:07:44;;;;;;;7.55;2.95;;;;;;;19.44;31.20;99647.75;7656901;32;41046;-84
2023/03/22 13:12:32;;;;;;;6.70;3.50;;;;;;;19.60;31.61;99644.41;7657730;32;37644;-84
2023/03/22 13:16:54;;;;;;;8.35;3.00;;;;;;;19.52;32.05;99637.75;7635802;32;38210;-83
2023/03/22 13:21:11;;;;;;;5.60;3.00;;;;;;;19.49;31.33;99630.16;7658316;32;39385;-84
2023/03/22 13:25:37;;;;;;;5.55;2.97;;;;;;;19.36;30.88;99632.03;7658075;32;40047;-84
2023/03/22 13:30:03;;;;;;;8.27;2.92;;;;;;;19.44;31.06;99630.34;7657957;32;37984;-84
2023/03/22 13:34:30;;;;;;;7.72;3.40;;;;;;;19.67;30.32;99622.53;7657929;32;37091;-84
2023/03/22 13:39:01;;;;;;;4.65;2.42;;;;;;;19.61;30.58;99621.09;7645499;32;39802;-83
2023/03/22 13:43:49;;;;;;;7.87;2.55;;;;;;;19.68;30.37;99618.63;7645195;32;40094;-84
2023/03/22 13:48:29;;;;;;;6.40;2.92;;;;;;;19.42;30.24;99624.34;7643752;32;37872;-83
2023/03/22 13:53:05;;;;;;;6.25;2.60;;;;;;;19.58;30.51;99619.03;7657741;32;37629;-83
2023/03/22 13:57:49;;;;;;;5.97;2.75;;;;;;;18.95;30.85;99617.78;7644366;32;39409;-83
2023/03/22 14:02:26;;;;;;;6.00;2.85;;;;;;;18.91;31.21;99611.28;7657306;32;41519;-84
2023/03/22 14:06:49;;;;;;;4.97;2.60;;;;;;;19.38;31.28;99602.09;7657392;32;36964;-84
2023/03/22 14:11:25;;;;;;;8.13;3.30;;;;;;;19.29;31.59;99601.34;7657249;32;37146;-84
2023/03/22 14:15:50;;;;;;;6.80;3.20;;;;;;;19.53;31.25;99603.44;7657097;32;40149;-84
2023/03/22 14:20:20;;;;;;;7.85;3.55;;;;;;;19.83;30.94;99601.47;7644241;32;39800;-84
2023/03/22 14:24:40;;;;;;;6.80;3.30;;;;;;;19.80;30.37;99602.13;7644195;32;37880;-84
2023/03/22 14:29:07;;;;;;;5.53;2.85;;;;;;;19.95;30.53;99588.81;7656797;32;37276;-83
2023/03/22 14:33:29;;;;;;;6.18;2.65;;;;;;;20.19;31.09;99582.56;7643756;32;39394;-83
2023/03/22 14:37:47;;;;;;;4.75;2.70;;;;;;;19.84;29.76;99580.94;7656534;32;40245;-83
2023/03/22 14:42:14;;;;;;;5.53;2.67;;;;;;;19.76;29.47;99570.75;7656351;32;38143;-83
2023/03/22 14:46:34;;;;;;;7.87;3.97;;;;;;;20.45;29.14;99563.72;7642879;32;38485;-84
2023/03/22 14:50:52;;;;;;;5.60;2.58;;;;;;;20.66;29.33;99562.81;7656317;32;39654;-83
2023/03/22 14:55:14;;;;;;;3.22;2.28;;;;;;;20.47;27.79;99557.81;7656295;32;40204;-84
2023/03/22 14:59:29;;;;;;;7.97;3.33;;;;;;;20.59;27.63;99568.09;7646845;32;37864;-83
2023/03/22 15:03:47;;;;;;;5.50;2.80;;;;;;;20.42;28.08;99552.50;7659823;32;37255;-84
2023/03/22 15:08:16;;;;;;;5.62;2.83;;;;;;;20.57;27.94;99543.53;7646382;32;39697;-83
2023/03/22 15:12:33;;;;;;;7.53;2.72;;;;;;;20.70;27.31;99547.16;7659721;32;40202;-84
2023/03/22 15:16:48;;;;;;;8.48;2.95;;;;;;;21.03;27.85;99550.97;7645516;32;37963;-84
2023/03/22 15:21:05;;;;;;;6.43;3.22;;;;;;;21.17;28.01;99551.41;7646219;32;37448;-84
2023/03/22 15:25:31;;;;;;;6.20;3.58;;;;;;;21.25;27.08;99542.16;7646438;32;39546;-85
2023/03/22 15:29:47;;;;;;;6.15;3.30;;;;;;;21.22;27.04;99542.84;7658833;32;40865;-84
2023/03/22 15:34:05;;;;;;;5.87;3.10;;;;;;;21.71;26.84;99537.19;7659309;32;37980;-84
2023/03/22 15:38:38;;;;;;;8.25;3.33;;;;;;;21.56;26.74;99541.50;7659200;32;36973;-84
2023/03/22 15:43:06;;;;;;;11.57;3.50;;;;;;;21.45;26.96;99528.47;7646551;32;40501;-84
2023/03/22 15:47:22;;;;;;;8.43;3.80;;;;;;;21.31;26.90;99526.88;7647174;32;40330;-84
2023/03/22 15:51:39;;;;;;;9.43;4.10;;;;;;;20.68;27.80;99530.09;7659604;32;37819;-83
2023/03/22 15:55:54;;;;;;;9.02;3.05;;;;;;;20.68;27.73;99523.72;7659221;32;38242;-84
2023/03/22 16:00:20;;;;;;;8.10;3.60;;;;;;;20.46;28.17;99528.53;7659138;32;39418;-84
2023/03/22 16:04:37;;;;;;;7.37;3.50;;;;;;;21.65;27.38;99516.41;7658999;32;40076;-84
2023/03/22 16:08:55;;;;;;;9.85;3.87;;;;;;;22.03;26.12;99522.59;7658629;32;39227;-84
2023/03/22 16:13:23;;;;;;;8.57;2.97;;;;;;;21.49;26.62;99529.37;7645464;32;37377;-83
2023/03/22 16:17:39;;;;;;;7.40;2.80;;;;;;;21.80;26.55;99522.34;7659324;32;39421;-83
2023/03/22 16:21:56;;;;;;;5.37;3.12;;;;;;;23.94;24.11;99514.72;7658774;32;41424;-84
2023/03/22 16:26:14;;;;;;;6.60;3.40;;;;;;;26.13;21.06;99517.16;7659605;32;20081;-84
2023/03/22 16:30:33;;;;;;;8.07;3.62;;;;;;;26.67;20.18;99516.84;7658776;32;36817;-84
2023/03/22 16:34:47;;;;;;;7.68;3.95;;;;;;;26.52;19.80;99515.91;7658685;32;39462;-84
2023/03/22 16:39:03;;;;;;;8.75;4.28;;;;;;;25.89;20.67;99521.25;7659552;32;20355;-81
2023/03/22 16:43:18;;;;;;;12.27;4.35;;;;;;;24.97;21.71;99522.41;7659349;32;20116;-84
2023/03/22 16:47:33;;;;;;;10.68;4.12;;;;;;;24.57;22.26;99526.59;7658576;32;38610;-84
2023/03/22 16:51:48;;;;;;;8.93;3.70;;;;;;;23.65;23.85;99529.22;7659273;32;20087;-84
2023/03/22 16:56:03;;;;;;;7.30;3.80;;;;;;;22.98;25.69;99535.69;7659247;32;20118;-83
2023/03/22 17:00:23;;;;;;;12.20;4.50;;;;;;;21.99;27.28;99541.91;7659226;32;20381;-84
2023/03/22 17:04:39;;;;;;;35.53;5.28;;;;;;;21.22;28.22;99542.03;7658441;32;37376;-83
2023/03/22 17:08:54;;;;;;;10.30;3.58;;;;;;;20.57;29.42;99537.19;7658256;32;40482;-84
2023/03/22 17:13:14;;;;;;;9.50;3.60;;;;;;;19.99;30.47;99548.25;7659057;32;20104;-83
2023/03/22 17:17:29;;;;;;;8.55;3.40;;;;;;;19.75;30.43;99544.25;7657940;32;38060;-83
2023/03/22 17:21:44;;;;;;;11.23;3.12;;;;;;;19.20;31.46;99548.09;7658801;32;20104;-83
2023/03/22 17:25:59;;;;;;;6.28;3.00;;;;;;;18.80;32.13;99565.00;7659018;32;20104;-83
2023/03/22 17:30:15;;;;;;;6.47;3.30;;;;;;;18.66;32.58;99568.81;7657921;32;41110;-84
2023/03/22 17:34:31;;;;;;;10.63;5.25;;;;;;;18.35;33.22;99564.38;7657674;32;39145;-83
2023/03/22 17:38:46;;;;;;;7.68;4.07;;;;;;;18.07;33.47;99565.91;7657807;32;37477;-83
2023/03/22 17:43:03;;;;;;;15.95;3.80;;;;;;;18.04;33.58;99574.84;7658795;32;20109;-83
2023/03/22 17:47:18;;;;;;;6.78;3.22;;;;;;;17.84;33.72;99579.88;7657543;32;40010;-83
2023/03/22 17:51:33;;;;;;;8.05;3.50;;;;;;;17.48;34.70;99577.44;7658382;32;20100;-83
2023/03/22 17:55:50;;;;;;;10.07;3.33;;;;;;;17.29;34.95;99580.50;7657467;32;38121;-83
2023/03/22 18:00:08;;;;;;;7.03;3.30;;;;;;;17.03;35.64;99581.25;7657565;32;40528;-83
2023/03/22 18:04:26;;;;;;;5.25;2.85;;;;;;;16.82;36.01;99584.56;7657267;32;40152;-83
2023/03/22 18:08:41;;;;;;;6.12;3.80;;;;;;;16.68;36.32;99584.66;7656971;32;37885;-83
2023/03/22 18:12:56;;;;;;;8.43;4.68;;;;;;;16.39;36.84;99589.87;7657019;32;37269;-83
2023/03/22 18:17:12;;;;;;;6.93;3.65;;;;;;;16.33;36.84;99591.91;7657730;32;20087;-83
2023/03/22 18:21:28;;;;;;;8.50;3.10;;;;;;;16.27;36.91;99590.44;7643200;32;40304;-83
2023/03/22 18:25:43;;;;;;;8.27;3.87;;;;;;;16.33;37.01;99600.16;7656902;32;39145;-83
2023/03/22 18:29:58;;;;;;;6.93;3.00;;;;;;;16.14;37.34;99590.22;7657336;32;20094;-84
2023/03/22 18:34:13;;;;;;;8.15;3.65;;;;;;;16.08;37.36;99594.22;7660511;32;27242;-84
2023/03/22 18:38:29;;;;;;;9.43;4.12;;;;;;;15.73;37.95;99593.12;7660734;32;20101;-83
2023/03/22 18:42:44;;;;;;;8.52;4.32;;;;;;;15.84;37.62;99601.97;7659805;32;39084;-83
2023/03/22 18:47:00;;;;;;;11.55;4.75;;;;;;;15.88;37.97;99605.69;7659951;32;37256;-84
2023/03/22 18:51:15;;;;;;;7.93;4.20;;;;;;;15.77;38.09;99605.94;7660090;32;40637;-83
2023/03/22 18:55:31;;;;;;;8.75;5.40;;;;;;;15.69;38.36;99608.59;7659746;32;41172;-83
2023/03/22 18:59:46;;;;;;;9.25;4.87;;;;;;;15.66;38.43;99599.03;7659584;32;39038;-83
2023/03/22 19:04:01;;;;;;;7.65;4.18;;;;;;;15.58;38.69;99605.28;7646781;32;20438;-83
2023/03/22 19:08:16;;;;;;;8.90;4.70;;;;;;;15.39;39.05;99611.72;7660576;32;20112;-84
2023/03/22 19:12:33;;;;;;;7.87;4.37;;;;;;;15.46;38.97;99610.50;7659546;32;41161;-83
2023/03/22 19:16:48;;;;;;;9.38;4.60;;;;;;;15.02;39.98;99612.78;7659404;32;39151;-83
2023/03/22 19:21:03;;;;;;;9.40;4.22;;;;;;;14.96;40.04;99612.06;7660432;32;20086;-83
2023/03/22 19:25:19;;;;;;;9.77;4.68;;;;;;;15.15;39.66;99611.94;7659455;32;39618;-83
2023/03/22 19:29:34;;;;;;;11.02;5.60;;;;;;;14.70;40.69;99610.94;7659107;32;39794;-83
2023/03/22 19:33:49;;;;;;;8.15;4.45;;;;;;;14.54;40.94;99608.47;7659186;32;37813;-83
2023/03/22 19:38:04;;;;;;;9.40;4.90;;;;;;;14.46;41.15;99600.94;7658667;32;37084;-82
2023/03/22 19:42:19;;;;;;;9.30;3.95;;;;;;;14.40;41.33;99611.19;7659317;32;20090;-83
2023/03/22 19:46:34;;;;;;;23.25;6.03;;;;;;;14.25;41.79;99605.97;7657743;32;38442;-84
2023/03/22 19:50:50;;;;;;;24.02;5.87;;;;;;;14.17;42.11;99604.72;7658774;32;39182;-84
2023/03/22 19:55:06;;;;;;;11.68;5.70;;;;;;;14.06;42.19;99608.75;7658955;32;37326;-84
2023/03/22 19:59:21;;;;;;;10.57;5.45;;;;;;;13.97;42.50;99610.53;7658570;32;40211;-83
2023/03/22 20:03:37;;;;;;;10.68;5.60;;;;;;;14.15;44.17;99606.94;7640503;32;41263;-82
2023/03/22 20:07:54;;;;;;;10.65;5.10;;;;;;;13.89;43.08;99604.63;7650046;32;38862;-85
2023/03/22 20:12:09;;;;;;;10.80;5.50;;;;;;;13.83;43.09;99607.72;7657627;32;38362;-82
2023/03/22 20:16:24;;;;;;;10.00;5.03;;;;;;;13.77;43.21;99607.00;7659095;32;30148;-85
2023/03/22 20:20:42;;;;;;;10.63;5.62;;;;;;;13.56;43.69;99606.50;7647302;32;20102;-85
2023/03/22 20:24:57;;;;;;;14.15;5.37;;;;;;;13.48;43.87;99607.97;7648945;32;39049;-86